Time;durP1;ratioP1;P1;durP2;ratioP2;P2;SDS_P1;SDS_P2;PMS_P1;PMS_P2;Temp;Humidity;BMP_temperature;BMP_pressure;BME280_temperature;BME280_humidity;BME280_pressure;Samples;Min_cycle;Max_cycle;Signal;HPM_P1;HPM_P2
2022/10/14 00:00:41;;;;;;;1.50;1.40;;;15.20;99.90;;;;;;5061294;28;20219;-70
2022/10/14 00:03:08;;;;;;;1.60;1.50;;;15.30;99.90;;;;;;5065169;28;20227;-69
2022/10/14 00:05:40;;;;;;;1.60;1.50;;;15.20;99.90;;;;;;5057691;28;20210;-70
2022/10/14 00:08:07;;;;;;;1.40;1.30;;;15.30;99.90;;;;;;5062254;28;20214;-69
2022/10/14 00:10:37;;;;;;;1.77;1.40;;;15.30;99.90;;;;;;5061524;28;20231;-68
2022/10/14 00:13:04;;;;;;;1.20;1.20;;;15.30;99.90;;;;;;5062692;28;20227;-70
2022/10/14 00:15:37;;;;;;;1.30;1.20;;;15.30;99.90;;;;;;5071960;28;20302;-71
2022/10/14 00:18:04;;;;;;;1.53;1.43;;;15.30;99.90;;;;;;5073261;28;20208;-70
2022/10/14 00:20:31;;;;;;;1.50;1.40;;;15.40;99.90;;;;;;5071337;28;20251;-69
2022/10/14 00:22:58;;;;;;;1.33;1.23;;;15.40;99.90;;;;;;5060334;28;20718;-69
2022/10/14 00:25:26;;;;;;;2.17;1.40;;;15.40;99.90;;;;;;5061184;28;20204;-68
2022/10/14 00:27:54;;;;;;;1.27;1.17;;;15.40;99.90;;;;;;5061149;28;20200;-69
2022/10/14 00:30:21;;;;;;;1.60;1.50;;;15.30;99.90;;;;;;5060859;28;20225;-70
2022/10/14 00:32:49;;;;;;;1.50;1.40;;;15.30;99.90;;;;;;5060651;28;20314;-69
2022/10/14 00:35:16;;;;;;;1.67;1.57;;;15.40;99.90;;;;;;5061067;28;20196;-69
2022/10/14 00:37:43;;;;;;;1.37;1.30;;;15.40;99.90;;;;;;5049599;28;20205;-69
2022/10/14 00:40:12;;;;;;;1.50;1.40;;;15.30;99.90;;;;;;5065404;28;20204;-68
2022/10/14 00:42:39;;;;;;;1.60;1.50;;;15.30;99.90;;;;;;5055147;28;20306;-68
2022/10/14 00:45:13;;;;;;;1.23;1.13;;;15.30;99.90;;;;;;5061252;28;20781;-68
2022/10/14 00:47:42;;;;;;;1.20;1.10;;;15.30;99.90;;;;;;5063162;28;20287;-70
2022/10/14 00:50:12;;;;;;;1.33;1.30;;;15.30;99.90;;;;;;5055105;28;20671;-70
2022/10/14 00:52:39;;;;;;;1.63;1.50;;;15.30;99.90;;;;;;5058754;28;20227;-70
2022/10/14 00:55:10;;;;;;;1.47;1.37;;;15.30;99.90;;;;;;5051746;28;20757;-70
2022/10/14 00:57:38;;;;;;;1.40;1.30;;;15.30;99.90;;;;;;5060690;28;20206;-70
2022/10/14 01:00:08;;;;;;;1.50;1.40;;;15.30;99.90;;;;;;5053338;28;20725;-70
2022/10/14 01:02:35;;;;;;;1.43;1.23;;;15.30;99.90;;;;;;5066003;28;20486;-68
2022/10/14 01:05:04;;;;;;;1.40;1.33;;;15.30;99.90;;;;;;5059957;28;20207;-69
2022/10/14 01:07:43;;;;;;;2.17;1.50;;;15.30;99.90;;;;;;5052203;28;20206;-69
2022/10/14 01:10:16;;;;;;;1.33;1.33;;;15.40;99.90;;;;;;5057468;28;20205;-69
2022/10/14 01:12:54;;;;;;;1.47;1.27;;;15.40;99.90;;;;;;5055856;28;20215;-70
2022/10/14 01:15:30;;;;;;;1.33;1.23;;;15.40;99.90;;;;;;5055849;28;20677;-69
2022/10/14 01:18:06;;;;;;;1.37;1.30;;;15.40;99.90;;;;;;5050474;28;20203;-69
2022/10/14 01:21:06;;;;;;;1.63;1.50;;;15.40;99.90;;;;;;5046208;28;20204;-70
2022/10/14 01:23:50;;;;;;;1.40;1.40;;;15.40;99.90;;;;;;5050325;28;20409;-70
2022/10/14 01:26:35;;;;;;;1.47;1.40;;;15.40;99.90;;;;;;5064038;28;20209;-68
2022/10/14 01:29:17;;;;;;;1.40;1.30;;;15.40;99.90;;;;;;5058945;28;20225;-69
2022/10/14 01:31:47;;;;;;;1.23;1.23;;;15.40;99.90;;;;;;5059826;28;20203;-69
2022/10/14 01:34:20;;;;;;;1.50;1.40;;;15.40;99.90;;;;;;5070235;28;20580;-68
2022/10/14 01:36:54;;;;;;;1.50;1.40;;;15.40;99.90;;;;;;5057038;28;20199;-69
2022/10/14 01:39:25;;;;;;;2.17;1.60;;;15.40;99.90;;;;;;5048427;28;20207;-70
2022/10/14 01:41:55;;;;;;;1.40;1.40;;;15.40;99.90;;;;;;5055889;28;20309;-68
2022/10/14 01:44:25;;;;;;;1.40;1.30;;;15.40;99.90;;;;;;5068007;28;20650;-69
2022/10/14 01:46:55;;;;;;;1.50;1.40;;;15.30;99.90;;;;;;5067114;28;20206;-69
2022/10/14 01:49:32;;;;;;;1.40;1.30;;;15.40;99.90;;;;;;5066566;28;20231;-69
2022/10/14 01:52:05;;;;;;;1.43;1.33;;;15.40;99.90;;;;;;5061776;28;20210;-69
2022/10/14 01:54:36;;;;;;;1.40;1.30;;;15.40;99.90;;;;;;5069188;28;20353;-69
2022/10/14 01:57:07;;;;;;;1.50;1.40;;;15.50;99.90;;;;;;5067856;28;20576;-69
2022/10/14 01:59:36;;;;;;;1.43;1.40;;;15.50;99.90;;;;;;5059817;28;20200;-69
2022/10/14 02:02:04;;;;;;;1.60;1.50;;;15.50;99.90;;;;;;5063117;28;20226;-70
2022/10/14 02:04:31;;;;;;;1.23;1.23;;;15.40;99.90;;;;;;5065680;28;20206;-68
2022/10/14 02:07:04;;;;;;;1.83;1.40;;;15.40;99.90;;;;;;5071442;28;20234;-70
2022/10/14 02:09:38;;;;;;;1.30;1.30;;;15.40;99.90;;;;;;5066797;28;20240;-69
2022/10/14 02:12:23;;;;;;;1.40;1.30;;;15.30;99.90;;;;;;5064439;28;20231;-69
2022/10/14 02:15:00;;;;;;;1.20;1.20;;;15.30;99.90;;;;;;5061913;28;20227;-70
2022/10/14 02:17:32;;;;;;;1.27;1.20;;;15.30;99.90;;;;;;5079745;28;20271;-70
2022/10/14 02:20:04;;;;;;;1.57;1.47;;;15.30;99.90;;;;;;5079751;28;20200;-71
2022/10/14 02:22:37;;;;;;;1.20;1.20;;;15.30;99.90;;;;;;5083339;28;20246;-69
2022/10/14 02:25:09;;;;;;;1.50;1.40;;;15.30;99.90;;;;;;5077412;28;20267;-69
2022/10/14 02:27:38;;;;;;;1.10;1.10;;;15.30;99.90;;;;;;5081498;28;20203;-70
2022/10/14 02:30:06;;;;;;;1.20;1.20;;;15.30;99.90;;;;;;5066089;28;20619;-69
2022/10/14 02:32:36;;;;;;;1.50;1.40;;;15.30;99.90;;;;;;5060974;28;20229;-71
2022/10/14 02:35:04;;;;;;;1.10;1.10;;;15.30;99.90;;;;;;5064654;28;20461;-70
2022/10/14 02:37:33;;;;;;;1.20;1.10;;;15.30;99.90;;;;;;5076581;28;20227;-69
2022/10/14 02:40:05;;;;;;;1.50;1.27;;;15.30;99.90;;;;;;5086549;28;20262;-69
2022/10/14 02:42:32;;;;;;;1.33;1.20;;;15.30;99.90;;;;;;5074339;28;20256;-69
2022/10/14 02:45:00;;;;;;;1.33;1.23;;;15.30;99.90;;;;;;5078596;28;20578;-70
2022/10/14 02:47:28;;;;;;;1.87;1.43;;;15.30;99.90;;;;;;5063176;28;20307;-70
2022/10/14 02:49:56;;;;;;;1.40;1.30;;;15.30;99.90;;;;;;5066816;28;20290;-69
2022/10/14 02:52:23;;;;;;;1.40;1.30;;;15.30;99.90;;;;;;5063894;28;20234;-68
2022/10/14 02:54:50;;;;;;;1.57;1.47;;;15.30;99.90;;;;;;5064031;28;20227;-70
2022/10/14 02:57:17;;;;;;;1.20;1.20;;;15.30;99.90;;;;;;5063204;28;20210;-68
2022/10/14 02:59:43;;;;;;;1.20;1.20;;;15.30;99.90;;;;;;5064676;28;20199;-70
2022/10/14 03:02:10;;;;;;;1.20;1.20;;;15.30;99.90;;;;;;5063702;28;20701;-69
2022/10/14 03:04:37;;;;;;;1.33;1.20;;;15.30;99.90;;;;;;5056684;28;20214;-69
2022/10/14 03:07:05;;;;;;;1.23;1.23;;;15.40;99.90;;;;;;5066181;28;20634;-69
2022/10/14 03:09:32;;;;;;;1.50;1.40;;;15.30;99.90;;;;;;5061929;28;20208;-69
2022/10/14 03:11:59;;;;;;;1.30;1.30;;;15.20;99.90;;;;;;5060901;28;20203;-68
2022/10/14 03:14:26;;;;;;;1.20;1.20;;;15.30;99.90;;;;;;5062625;28;20650;-69
2022/10/14 03:16:52;;;;;;;1.40;1.30;;;15.30;99.90;;;;;;5065820;28;20227;-69
2022/10/14 03:19:19;;;;;;;1.10;1.10;;;15.30;99.90;;;;;;5065349;28;20204;-69
2022/10/14 03:21:47;;;;;;;1.40;1.30;;;15.30;99.90;;;;;;5065209;28;20615;-69
2022/10/14 03:24:16;;;;;;;1.87;1.40;;;15.20;99.90;;;;;;5066372;28;20199;-70
2022/10/14 03:26:42;;;;;;;1.40;1.30;;;15.20;99.90;;;;;;5058973;28;20196;-69
2022/10/14 03:29:09;;;;;;;1.50;1.40;;;15.10;99.90;;;;;;5055856;28;20651;-69
2022/10/14 03:31:36;;;;;;;1.20;1.20;;;15.10;99.90;;;;;;5057217;28;20291;-70
2022/10/14 03:34:03;;;;;;;1.50;1.40;;;15.10;99.90;;;;;;5060313;28;20311;-70
2022/10/14 03:36:30;;;;;;;1.40;1.30;;;15.10;99.90;;;;;;5060567;28;20223;-69
2022/10/14 03:38:57;;;;;;;1.77;1.67;;;15.10;99.90;;;;;;5060952;28;20208;-68
2022/10/14 03:41:25;;;;;;;1.60;1.50;;;15.10;99.90;;;;;;5050879;28;20298;-71
2022/10/14 03:43:53;;;;;;;1.33;1.33;;;15.10;99.90;;;;;;5065713;28;20215;-70
2022/10/14 03:46:20;;;;;;;1.30;1.20;;;15.10;99.90;;;;;;5060453;28;20207;-70
2022/10/14 03:48:47;;;;;;;1.50;1.40;;;15.10;99.90;;;;;;5072192;28;20282;-70
2022/10/14 03:51:15;;;;;;;1.27;1.20;;;15.10;99.90;;;;;;5058088;28;20208;-68
2022/10/14 03:53:42;;;;;;;1.30;1.30;;;15.10;99.90;;;;;;5060967;28;20224;-68
2022/10/14 03:56:08;;;;;;;1.30;1.20;;;15.20;99.90;;;;;;5059564;28;20215;-69
2022/10/14 03:58:37;;;;;;;1.20;1.20;;;15.20;99.90;;;;;;5063323;28;20239;-70
2022/10/14 04:01:04;;;;;;;1.43;1.37;;;15.30;99.90;;;;;;5064789;28;20211;-68
2022/10/14 04:03:31;;;;;;;1.30;1.30;;;15.30;99.90;;;;;;5057160;28;20318;-68
2022/10/14 04:05:58;;;;;;;1.20;1.20;;;15.30;99.90;;;;;;5065103;28;20213;-70
2022/10/14 04:08:24;;;;;;;1.33;1.30;;;15.20;99.90;;;;;;5061325;28;20203;-69
2022/10/14 04:10:52;;;;;;;1.20;1.20;;;15.20;99.90;;;;;;5057798;28;20205;-70
2022/10/14 04:13:20;;;;;;;1.20;1.20;;;15.20;99.90;;;;;;5060717;28;20302;-70
2022/10/14 04:15:48;;;;;;;1.37;1.27;;;15.20;99.90;;;;;;5064295;28;20217;-69
2022/10/14 04:18:15;;;;;;;1.57;1.40;;;15.20;99.90;;;;;;5069654;28;20693;-69
2022/10/14 04:20:42;;;;;;;1.40;1.30;;;15.20;99.90;;;;;;5059323;22;20310;-63
2022/10/14 04:23:09;;;;;;;1.60;1.50;;;15.20;99.90;;;;;;5033071;28;20235;-62
2022/10/14 04:25:38;;;;;;;2.30;1.30;;;15.20;99.90;;;;;;5032025;28;20292;-63
2022/10/14 04:28:05;;;;;;;1.40;1.30;;;15.20;99.90;;;;;;5031195;28;20243;-62
2022/10/14 04:30:32;;;;;;;1.17;1.17;;;15.20;99.90;;;;;;5049900;28;20723;-62
2022/10/14 04:33:00;;;;;;;1.40;1.30;;;15.30;99.90;;;;;;5043332;28;20201;-62
2022/10/14 04:35:27;;;;;;;1.40;1.30;;;15.20;99.90;;;;;;5033865;28;20204;-63
2022/10/14 04:37:54;;;;;;;2.30;1.43;;;15.30;99.90;;;;;;5033596;28;20211;-61
2022/10/14 04:40:24;;;;;;;1.53;1.43;;;15.30;99.90;;;;;;5035276;28;20689;-63
2022/10/14 04:42:54;;;;;;;1.07;1.07;;;15.30;99.90;;;;;;5030355;28;20367;-62
2022/10/14 04:45:21;;;;;;;1.23;1.23;;;15.30;99.90;;;;;;5033191;28;20205;-62
2022/10/14 04:47:48;;;;;;;1.50;1.40;;;15.30;99.90;;;;;;5037640;28;20663;-63
2022/10/14 04:50:17;;;;;;;1.60;1.50;;;15.20;99.90;;;;;;5034085;28;20235;-63
2022/10/14 04:52:43;;;;;;;1.60;1.50;;;15.20;99.90;;;;;;5032179;28;20207;-63
2022/10/14 04:55:11;;;;;;;1.67;1.57;;;15.20;99.90;;;;;;5032526;28;20204;-63
2022/10/14 04:57:39;;;;;;;1.60;1.50;;;15.20;99.90;;;;;;5032120;28;20220;-62
2022/10/14 05:00:07;;;;;;;1.60;1.50;;;15.20;99.90;;;;;;5032897;28;20234;-62
2022/10/14 05:02:34;;;;;;;1.60;1.50;;;15.30;99.90;;;;;;5033471;28;20706;-63
2022/10/14 05:05:00;;;;;;;1.50;1.40;;;15.20;99.90;;;;;;5041140;28;20200;-62
2022/10/14 05:07:29;;;;;;;1.43;1.40;;;15.30;99.90;;;;;;5040749;28;20714;-64
2022/10/14 05:09:56;;;;;;;1.37;1.17;;;15.30;99.90;;;;;;5032110;28;20276;-63
2022/10/14 05:12:23;;;;;;;1.27;1.20;;;15.20;99.90;;;;;;5031821;28;20197;-61
2022/10/14 05:14:50;;;;;;;1.97;1.47;;;15.30;99.90;;;;;;5040183;28;20206;-63
2022/10/14 05:17:16;;;;;;;1.47;1.37;;;15.20;99.90;;;;;;5032155;28;20209;-63
2022/10/14 05:19:43;;;;;;;1.50;1.40;;;15.20;99.90;;;;;;5031341;28;21037;-63
2022/10/14 05:22:10;;;;;;;1.27;1.27;;;15.20;99.90;;;;;;5035487;28;20308;-62
2022/10/14 05:24:38;;;;;;;1.40;1.30;;;15.20;99.90;;;;;;5031584;28;20204;-61
2022/10/14 05:27:05;;;;;;;1.37;1.30;;;15.20;99.90;;;;;;5034803;28;20219;-62
2022/10/14 05:29:32;;;;;;;1.50;1.40;;;15.20;99.90;;;;;;5032883;28;20291;-61
2022/10/14 05:31:59;;;;;;;1.50;1.40;;;15.30;99.90;;;;;;5033091;28;20214;-62
2022/10/14 05:34:25;;;;;;;1.40;1.30;;;15.20;99.90;;;;;;5031461;28;20215;-61
2022/10/14 05:36:52;;;;;;;1.20;1.20;;;15.20;99.90;;;;;;5032259;28;20201;-61
2022/10/14 05:39:19;;;;;;;1.60;1.50;;;15.20;99.90;;;;;;5031825;28;20211;-62
2022/10/14 05:41:47;;;;;;;1.60;1.50;;;15.30;99.90;;;;;;5031416;28;20204;-62
2022/10/14 05:44:14;;;;;;;1.50;1.40;;;15.30;99.90;;;;;;5032024;28;20287;-62
2022/10/14 05:46:41;;;;;;;1.63;1.53;;;15.30;99.90;;;;;;5032792;28;20219;-61
2022/10/14 05:49:10;;;;;;;1.60;1.50;;;15.20;99.90;;;;;;5045552;28;20208;-62
2022/10/14 05:51:37;;;;;;;1.33;1.30;;;15.20;99.90;;;;;;5031060;28;20255;-63
2022/10/14 05:54:03;;;;;;;1.50;1.20;;;15.20;99.90;;;;;;5037643;28;20199;-63
2022/10/14 05:56:30;;;;;;;1.23;1.23;;;15.20;99.90;;;;;;5033860;28;20682;-63
2022/10/14 05:58:58;;;;;;;1.60;1.50;;;15.20;99.90;;;;;;5042320;28;20204;-61
2022/10/14 06:01:25;;;;;;;1.20;1.20;;;15.30;99.90;;;;;;5039495;28;20286;-62
2022/10/14 06:03:54;;;;;;;1.50;1.40;;;15.30;99.90;;;;;;5034837;28;20216;-61
2022/10/14 06:06:22;;;;;;;1.43;1.40;;;15.30;99.90;;;;;;5035428;28;20501;-61
2022/10/14 06:08:49;;;;;;;1.43;1.40;;;15.30;99.90;;;;;;5025071;28;20237;-62
2022/10/14 06:11:16;;;;;;;1.23;1.20;;;15.40;99.90;;;;;;5029745;28;20288;-61
2022/10/14 06:13:43;;;;;;;1.30;1.20;;;15.40;99.90;;;;;;5035304;28;20200;-62
2022/10/14 06:16:11;;;;;;;1.40;1.30;;;15.40;99.90;;;;;;5025330;28;20204;-62
2022/10/14 06:18:39;;;;;;;1.60;1.50;;;15.40;99.90;;;;;;5023902;28;20237;-61
2022/10/14 06:21:06;;;;;;;3.03;1.20;;;15.50;99.90;;;;;;5035038;28;20315;-61
2022/10/14 06:23:33;;;;;;;1.13;1.13;;;15.50;99.90;;;;;;5034443;28;20224;-63
2022/10/14 06:26:04;;;;;;;1.17;1.17;;;15.60;99.90;;;;;;5035109;28;20666;-63
2022/10/14 06:28:32;;;;;;;1.30;1.20;;;15.60;99.90;;;;;;5034465;28;20235;-63
2022/10/14 06:30:59;;;;;;;1.30;1.20;;;15.60;99.90;;;;;;5034773;28;20320;-62
2022/10/14 06:33:28;;;;;;;1.30;1.30;;;15.60;99.90;;;;;;5038905;28;20210;-62
2022/10/14 06:35:55;;;;;;;1.47;1.30;;;15.60;99.90;;;;;;5035134;28;20243;-62
2022/10/14 06:38:22;;;;;;;1.33;1.30;;;15.60;99.90;;;;;;5034700;28;20227;-63
2022/10/14 06:40:50;;;;;;;1.10;1.10;;;15.60;99.90;;;;;;5031321;28;20229;-61
2022/10/14 06:43:17;;;;;;;1.30;1.30;;;15.70;99.90;;;;;;5032638;28;20217;-63
2022/10/14 06:45:44;;;;;;;1.10;1.10;;;15.70;99.90;;;;;;5034773;28;20742;-62
2022/10/14 06:48:11;;;;;;;1.20;1.20;;;15.70;99.90;;;;;;5030201;28;20209;-63
2022/10/14 06:50:39;;;;;;;1.37;1.27;;;15.80;99.90;;;;;;5024294;28;20282;-63
2022/10/14 06:53:06;;;;;;;1.03;1.03;;;15.80;99.90;;;;;;5025748;28;20206;-62
2022/10/14 06:55:33;;;;;;;1.10;1.10;;;15.80;99.90;;;;;;5033632;28;20647;-63
2022/10/14 06:57:59;;;;;;;1.40;1.30;;;15.90;99.90;;;;;;5028692;28;20254;-64
2022/10/14 07:00:26;;;;;;;1.30;1.20;;;15.90;99.90;;;;;;5034064;28;20717;-63
2022/10/14 07:02:53;;;;;;;1.93;1.27;;;15.90;99.90;;;;;;5030929;28;20224;-64
2022/10/14 07:05:20;;;;;;;1.10;1.10;;;15.90;99.90;;;;;;5034123;28;20682;-63
2022/10/14 07:07:48;;;;;;;1.90;1.40;;;15.90;99.90;;;;;;5032327;28;20296;-64
2022/10/14 07:10:15;;;;;;;1.20;1.20;;;15.90;99.90;;;;;;5034297;28;20256;-65
2022/10/14 07:12:42;;;;;;;1.47;1.37;;;15.90;99.90;;;;;;5030442;28;20201;-65
2022/10/14 07:15:10;;;;;;;1.20;1.20;;;16.00;99.90;;;;;;5034567;28;20205;-60
2022/10/14 07:17:36;;;;;;;1.23;1.13;;;16.00;99.90;;;;;;5034306;28;20414;-62
2022/10/14 07:20:04;;;;;;;1.20;1.10;;;16.00;99.90;;;;;;5028336;28;20233;-61
2022/10/14 07:22:30;;;;;;;1.67;1.20;;;16.00;99.90;;;;;;5031080;28;20285;-62
2022/10/14 07:24:59;;;;;;;1.00;1.00;;;16.00;99.90;;;;;;5034086;28;20288;-61
2022/10/14 07:27:25;;;;;;;1.00;1.00;;;16.10;99.90;;;;;;5033683;28;20216;-61
2022/10/14 07:29:52;;;;;;;1.40;1.30;;;16.20;99.90;;;;;;5034156;28;20221;-62
2022/10/14 07:32:19;;;;;;;1.20;1.10;;;16.20;99.90;;;;;;5034201;28;20208;-63
2022/10/14 07:34:46;;;;;;;1.23;1.20;;;16.20;99.90;;;;;;5034184;28;20522;-62
2022/10/14 07:37:13;;;;;;;1.10;1.10;;;16.20;99.90;;;;;;5026988;28;20209;-63
2022/10/14 07:39:39;;;;;;;1.67;1.33;;;16.20;99.90;;;;;;5024226;28;20647;-61
2022/10/14 07:42:08;;;;;;;1.07;1.07;;;16.20;99.90;;;;;;5026003;28;20205;-61
2022/10/14 07:44:35;;;;;;;1.23;1.20;;;16.20;99.90;;;;;;5032234;28;20725;-62
2022/10/14 07:47:03;;;;;;;0.97;0.97;;;16.20;99.90;;;;;;5026532;28;20210;-61
2022/10/14 07:49:30;;;;;;;1.00;1.00;;;16.20;99.90;;;;;;5028694;28;20201;-61
2022/10/14 07:51:56;;;;;;;0.90;0.90;;;16.30;99.90;;;;;;5033110;28;20205;-63
2022/10/14 07:54:28;;;;;;;1.17;1.07;;;16.40;99.90;;;;;;5025628;28;20202;-63
2022/10/14 07:56:56;;;;;;;1.27;1.17;;;16.40;99.90;;;;;;5035624;28;20209;-61
2022/10/14 07:59:25;;;;;;;1.20;1.20;;;16.50;99.90;;;;;;5028176;28;20208;-61
2022/10/14 08:01:54;;;;;;;1.20;1.10;;;16.50;99.90;;;;;;5026510;28;20287;-61
2022/10/14 08:04:21;;;;;;;1.57;1.47;;;16.50;99.90;;;;;;5035433;28;20247;-60
2022/10/14 08:06:48;;;;;;;1.00;1.00;;;16.50;99.90;;;;;;5032695;28;20240;-61
2022/10/14 08:09:15;;;;;;;1.17;1.17;;;16.70;99.90;;;;;;5033846;28;20200;-61
2022/10/14 08:11:43;;;;;;;1.37;1.30;;;16.50;99.90;;;;;;5024819;28;20488;-63
2022/10/14 08:14:10;;;;;;;1.30;1.20;;;16.60;99.90;;;;;;5024809;28;20193;-62
2022/10/14 08:16:39;;;;;;;1.50;1.40;;;16.50;99.90;;;;;;5031562;28;20219;-63
2022/10/14 08:19:09;;;;;;;1.20;1.20;;;16.50;99.90;;;;;;5020986;28;20208;-62
2022/10/14 08:21:36;;;;;;;0.90;0.90;;;16.50;99.90;;;;;;5030476;28;20237;-63
2022/10/14 08:24:03;;;;;;;1.40;1.30;;;16.40;99.90;;;;;;5022495;28;20316;-63
2022/10/14 08:26:32;;;;;;;1.33;1.23;;;16.50;99.90;;;;;;5033098;28;20215;-62
2022/10/14 08:29:01;;;;;;;1.27;1.20;;;16.50;99.90;;;;;;5033681;28;20310;-62
2022/10/14 08:31:28;;;;;;;1.37;1.27;;;16.40;99.90;;;;;;5032707;28;20224;-62
2022/10/14 08:33:57;;;;;;;1.20;1.20;;;16.50;99.90;;;;;;5032088;28;20257;-61
2022/10/14 08:36:24;;;;;;;1.00;1.00;;;16.60;99.90;;;;;;5032518;28;20215;-62
2022/10/14 08:38:53;;;;;;;0.93;0.93;;;16.50;99.90;;;;;;5024833;28;20209;-63
2022/10/14 08:41:31;;;;;;;1.00;1.00;;;16.60;99.90;;;;;;5024725;28;20229;-62
2022/10/14 08:44:12;;;;;;;1.10;1.10;;;16.70;99.90;;;;;;5025411;28;20234;-62
2022/10/14 08:46:42;;;;;;;1.00;1.00;;;16.70;99.90;;;;;;5032210;28;20211;-61
2022/10/14 08:49:17;;;;;;;1.10;1.10;;;16.70;99.90;;;;;;5026257;28;20565;-62
2022/10/14 08:51:48;;;;;;;0.97;0.97;;;16.70;99.90;;;;;;5031559;28;20220;-61
2022/10/14 08:54:20;;;;;;;1.30;1.20;;;16.80;99.90;;;;;;5026031;28;20197;-61
2022/10/14 08:56:47;;;;;;;1.30;1.20;;;16.80;99.90;;;;;;5029945;28;20215;-61
2022/10/14 08:59:18;;;;;;;1.30;1.20;;;16.70;99.90;;;;;;5032698;28;20215;-62
2022/10/14 09:01:52;;;;;;;1.17;1.17;;;16.70;99.90;;;;;;5032244;28;20690;-62
2022/10/14 09:04:20;;;;;;;0.90;0.90;;;16.70;99.90;;;;;;5028591;28;20212;-62
2022/10/14 09:06:49;;;;;;;1.50;1.40;;;16.80;99.90;;;;;;5032036;28;20295;-64
2022/10/14 09:09:21;;;;;;;1.20;1.17;;;16.70;99.90;;;;;;5032793;28;20197;-63
2022/10/14 09:11:52;;;;;;;1.20;1.10;;;16.70;99.90;;;;;;5031097;28;20222;-62
2022/10/14 09:14:22;;;;;;;1.23;1.13;;;16.60;99.90;;;;;;5032585;28;20193;-62
2022/10/14 09:16:54;;;;;;;0.90;0.90;;;16.60;99.90;;;;;;5031982;28;20688;-61
2022/10/14 09:19:29;;;;;;;1.30;1.20;;;16.60;99.90;;;;;;5032242;28;20566;-62
2022/10/14 09:21:57;;;;;;;1.20;1.10;;;16.60;99.90;;;;;;5030955;28;20744;-63
2022/10/14 09:24:26;;;;;;;1.23;1.20;;;16.70;99.90;;;;;;5028207;28;20220;-62
2022/10/14 09:26:56;;;;;;;1.80;1.10;;;16.60;99.90;;;;;;5031594;28;20201;-62
2022/10/14 09:29:26;;;;;;;2.97;1.43;;;16.60;99.90;;;;;;5032111;28;20299;-64
2022/10/14 09:31:56;;;;;;;1.40;1.30;;;16.60;99.90;;;;;;5033133;28;20625;-62
2022/10/14 09:34:30;;;;;;;1.00;1.00;;;16.70;99.90;;;;;;5032074;28;20204;-62
2022/10/14 09:37:01;;;;;;;1.10;1.10;;;16.70;99.90;;;;;;5034041;28;20204;-62
2022/10/14 09:39:28;;;;;;;1.30;1.30;;;16.80;99.90;;;;;;5033467;28;20207;-63
2022/10/14 09:41:57;;;;;;;1.53;1.40;;;16.80;99.90;;;;;;5036285;28;20208;-63
2022/10/14 09:44:25;;;;;;;1.37;1.27;;;16.80;99.90;;;;;;5032231;28;20228;-63
2022/10/14 09:46:56;;;;;;;1.50;1.40;;;16.90;99.90;;;;;;5028748;28;20619;-63
2022/10/14 09:49:33;;;;;;;1.77;1.23;;;16.90;99.90;;;;;;5031879;28;20197;-63
2022/10/14 09:52:01;;;;;;;1.40;1.30;;;17.00;99.90;;;;;;5031314;28;20208;-63
2022/10/14 09:54:30;;;;;;;1.50;1.10;;;17.00;99.90;;;;;;5033903;28;20200;-63
2022/10/14 09:57:07;;;;;;;1.00;1.00;;;17.10;99.90;;;;;;5035288;28;20210;-64
2022/10/14 09:59:37;;;;;;;1.47;1.37;;;17.30;99.90;;;;;;5027421;28;20579;-64
2022/10/14 10:02:04;;;;;;;1.30;1.30;;;17.30;99.90;;;;;;5024224;28;20200;-64
2022/10/14 10:04:41;;;;;;;1.40;1.30;;;17.40;99.90;;;;;;5026263;28;20274;-63
2022/10/14 10:07:30;;;;;;;1.30;1.30;;;17.40;99.90;;;;;;5024172;28;20281;-64
2022/10/14 10:09:57;;;;;;;1.33;1.23;;;17.50;99.90;;;;;;5028101;28;20224;-63
2022/10/14 10:12:29;;;;;;;1.23;1.20;;;17.50;99.90;;;;;;5034838;28;20204;-63
2022/10/14 10:14:57;;;;;;;1.00;1.00;;;17.60;99.90;;;;;;5028724;28;20203;-63
2022/10/14 10:17:26;;;;;;;1.00;1.00;;;17.70;99.90;;;;;;5038975;28;20209;-66
2022/10/14 10:20:07;;;;;;;1.00;1.00;;;17.70;99.90;;;;;;5029963;28;20326;-62
2022/10/14 10:22:37;;;;;;;1.07;0.87;;;17.80;99.90;;;;;;5024889;28;20292;-61
2022/10/14 10:25:25;;;;;;;1.00;1.00;;;18.00;99.90;;;;;;5027237;28;20300;-62
2022/10/14 10:27:53;;;;;;;1.00;1.00;;;18.10;99.90;;;;;;5030943;28;20675;-62
2022/10/14 10:30:23;;;;;;;1.33;1.00;;;18.20;99.90;;;;;;5035087;28;20221;-62
2022/10/14 10:33:08;;;;;;;1.10;1.07;;;18.20;99.90;;;;;;5039486;28;20283;-64
2022/10/14 10:35:52;;;;;;;0.80;0.80;;;18.30;99.90;;;;;;5030941;28;20215;-62
2022/10/14 10:38:24;;;;;;;0.90;0.90;;;18.30;99.90;;;;;;5030945;28;20242;-64
2022/10/14 10:41:05;;;;;;;0.90;0.90;;;18.40;99.90;;;;;;5025356;28;20221;-64
2022/10/14 10:43:48;;;;;;;1.17;1.07;;;18.50;99.90;;;;;;5034196;28;20312;-63
2022/10/14 10:46:36;;;;;;;0.80;0.80;;;18.60;99.90;;;;;;5028166;28;20211;-61
2022/10/14 10:49:15;;;;;;;0.90;0.90;;;18.60;99.90;;;;;;5030110;28;20584;-63
2022/10/14 10:51:53;;;;;;;0.60;0.60;;;18.70;99.90;;;;;;5029248;28;20312;-65
2022/10/14 10:54:31;;;;;;;0.80;0.80;;;18.80;99.90;;;;;;5030662;28;20674;-64
2022/10/14 10:57:03;;;;;;;0.70;0.70;;;18.90;99.90;;;;;;5034693;28;20262;-63
2022/10/14 10:59:49;;;;;;;0.60;0.60;;;18.90;99.90;;;;;;5034628;28;20197;-65
2022/10/14 11:02:53;;;;;;;0.60;0.60;;;19.00;99.90;;;;;;5032455;28;20573;-63
2022/10/14 11:05:29;;;;;;;0.90;0.90;;;19.10;99.90;;;;;;5019075;28;20597;-66
2022/10/14 11:14:09;;;;;;;0.83;0.83;;;19.30;99.90;;;;;;5031438;28;20196;-63
2022/10/14 11:16:43;;;;;;;0.70;0.70;;;19.30;99.90;;;;;;5034429;28;20208;-63
2022/10/14 11:19:17;;;;;;;0.70;0.70;;;19.30;99.90;;;;;;5032593;28;20734;-64
2022/10/14 11:21:51;;;;;;;0.80;0.80;;;19.30;99.90;;;;;;5033607;28;20327;-63
2022/10/14 11:24:28;;;;;;;0.70;0.70;;;19.30;99.90;;;;;;5025780;28;20227;-64
2022/10/14 11:27:08;;;;;;;0.60;0.60;;;19.30;99.90;;;;;;5043912;23;20228;-68
2022/10/14 11:29:49;;;;;;;0.70;0.70;;;19.30;99.90;;;;;;5034135;28;20197;-68
2022/10/14 11:32:22;;;;;;;0.70;0.70;;;19.30;99.90;;;;;;5033533;28;20254;-68
2022/10/14 11:35:01;;;;;;;0.77;0.77;;;19.40;99.90;;;;;;5031701;28;20207;-68
2022/10/14 11:37:37;;;;;;;0.80;0.60;;;19.40;99.90;;;;;;5032424;28;20221;-69
2022/10/14 11:40:18;;;;;;;0.60;0.60;;;19.50;99.90;;;;;;5029447;28;20205;-69
2022/10/14 11:42:57;;;;;;;0.70;0.70;;;19.50;99.90;;;;;;5031652;28;20211;-69
2022/10/14 11:45:47;;;;;;;0.50;0.50;;;19.60;99.90;;;;;;5031326;28;20232;-68
2022/10/14 11:48:25;;;;;;;0.73;0.73;;;19.50;99.90;;;;;;5026680;28;20356;-69
2022/10/14 11:50:56;;;;;;;0.70;0.70;;;19.60;99.90;;;;;;5031308;28;20700;-68
2022/10/14 11:53:30;;;;;;;0.70;0.70;;;19.50;99.90;;;;;;5032645;28;20263;-69
2022/10/14 11:56:04;;;;;;;0.60;0.60;;;19.50;99.90;;;;;;5030400;28;20581;-68
2022/10/14 11:58:34;;;;;;;0.80;0.77;;;19.50;99.90;;;;;;5031905;28;20310;-68
2022/10/14 12:01:21;;;;;;;0.70;0.70;;;19.40;99.90;;;;;;5031613;28;20213;-68
2022/10/14 12:03:57;;;;;;;0.70;0.70;;;19.30;99.90;;;;;;5031457;28;20716;-69
2022/10/14 12:06:30;;;;;;;0.80;0.80;;;19.30;99.90;;;;;;5026610;28;20204;-69
2022/10/14 12:09:00;;;;;;;0.53;0.53;;;19.30;99.90;;;;;;5034526;28;20212;-68
2022/10/14 12:11:34;;;;;;;0.40;0.40;;;19.20;99.90;;;;;;5031492;28;20211;-68
2022/10/14 12:14:09;;;;;;;0.50;0.50;;;19.20;99.90;;;;;;5031912;28;20201;-69
2022/10/14 12:16:41;;;;;;;0.60;0.60;;;19.20;99.90;;;;;;5019808;28;20228;-68
2022/10/14 12:19:10;;;;;;;0.50;0.50;;;19.20;99.90;;;;;;5028947;28;20206;-68
2022/10/14 12:21:45;;;;;;;0.73;0.67;;;19.10;99.90;;;;;;5031548;28;20207;-69
2022/10/14 12:24:15;;;;;;;0.67;0.67;;;19.10;99.90;;;;;;5033564;28;20222;-69
2022/10/14 12:26:55;;;;;;;0.50;0.50;;;19.20;99.90;;;;;;5031793;28;20232;-69
2022/10/14 12:29:25;;;;;;;0.60;0.60;;;19.20;99.90;;;;;;5031758;28;20287;-69
2022/10/14 12:32:07;;;;;;;0.70;0.70;;;19.30;99.90;;;;;;5027910;28;20225;-69
2022/10/14 12:34:36;;;;;;;0.90;0.80;;;19.40;99.90;;;;;;5028923;28;20232;-68
2022/10/14 12:37:48;;;;;;;0.50;0.50;;;19.40;99.90;;;;;;5031391;28;20896;-68
2022/10/14 12:40:27;;;;;;;0.50;0.50;;;19.50;99.90;;;;;;5030994;28;20280;-68
2022/10/14 12:43:13;;;;;;;0.50;0.50;;;19.50;99.90;;;;;;5028568;28;20670;-69
2022/10/14 12:46:00;;;;;;;0.60;0.60;;;19.60;99.90;;;;;;5030870;28;20550;-70
2022/10/14 12:48:30;;;;;;;0.50;0.50;;;19.50;99.90;;;;;;5022728;28;20232;-69
2022/10/14 12:51:07;;;;;;;0.70;0.70;;;19.50;99.90;;;;;;5025892;28;20213;-69
2022/10/14 12:53:35;;;;;;;0.60;0.60;;;19.50;99.90;;;;;;5022435;28;20295;-69
2022/10/14 12:56:04;;;;;;;0.63;0.63;;;19.50;99.90;;;;;;5026365;28;20200;-69
2022/10/14 12:58:37;;;;;;;0.50;0.50;;;19.40;99.90;;;;;;5037582;28;20666;-70
2022/10/14 13:01:15;;;;;;;0.53;0.53;;;19.50;99.90;;;;;;5026506;28;20205;-69
2022/10/14 13:03:45;;;;;;;0.90;0.70;;;19.50;99.90;;;;;;5029730;28;20299;-68
2022/10/14 13:06:35;;;;;;;0.60;0.60;;;19.40;99.90;;;;;;5033108;28;20221;-69
2022/10/14 13:09:35;;;;;;;0.67;0.67;;;19.50;99.90;;;;;;5032624;28;20209;-69
2022/10/14 13:12:35;;;;;;;0.60;0.60;;;19.50;99.90;;;;;;5025963;28;20212;-69